Alta Vista, Iowa
Current Conditions -  °F | °C
As of 9:15 AM on Friday 31 Oct 2014 (Local Time) from KCCY Reporting Station
Clear Clear  
Wind Chill: 18°   Ceiling: Unl
Heat Index: 30°   Visibility: NA
Dew Point: 18°   Wind: 17mph
Humidity: 60%   Direction: 350°N
Pressure: 30.46"   Gusts: NA
Location:  43.2°N, 92.42°W
Report Text: KCCY 311415Z AUTO 35015KT CLR M01/M08 A3046 RMK AO2
Loading
Personal Weather Stations






























Interactive Weather Map
Tropical Storm Tracking
New forecast layout! Learn more

10-Day Weather Forecast

Advertisements
Track Severe Weather on mobile